• Join FlightAware (Why Join?)
  • Login
  • US Flag 
07:20AM EDT


 

Airport Tracker/Info


-or-


 

Live Flight TrackerFlight Track Log ✈ RPA3284 ✈ 27-Aug-2013 ✈ KILM - KCLT

Flight Track Log - Related Links

Times and Time Zones

All times are in EDT time to prevent confusion due to time zone crossing. See the RPA3284 flight status page for this flight to view local times or setup timezone preferences in your user account.

Time Position Orientation Groundspeed Altitude Reporting Facility
EDT Latitude Longitude Course Direction KTS MPH feet Rate Location/Type
02:47PM 34.2306 -78.0208 270° West 251 289 3,600  Level Washington Center
02:48PM 34.2269 -78.1011 267° West 264 304 7,400 3,480 Climbing Washington Center
02:49PM 34.2500 -78.3861 270° West  Level FlightAware Approximate
02:49PM 34.2269 -78.1992 270° West 279 321 10,600  Level Washington Center
02:50PM 34.2500 -78.5080 270° West  Level FlightAware Approximate
02:51PM 34.2500 -78.6299 270° West  Level FlightAware Approximate
02:51PM 34.2289 -78.4272 271° West 306 352 16,800  Level Jacksonville Center
02:52PM 34.2501 -78.7338 270° West  Level FlightAware Approximate
02:52PM 34.2283 -78.5303 270° West 326 375 19,500  Level Jacksonville Center
02:53PM 34.2501 -78.8378 270° West  Level FlightAware Approximate
02:53PM 34.2300 -78.6431 271° West 333 383 20,000  Level Jacksonville Center
02:54PM 34.2297 -78.7536 270° West 333 383 20,000  Level Jacksonville Center
02:55PM 34.2311 -78.8667 271° West 333 383 20,000  Level Jacksonville Center
02:56PM 34.2306 -78.9772 270° West 333 383 20,000  Level Jacksonville Center
02:57PM 34.2317 -79.0875 271° West 333 383 20,000  Level Jacksonville Center
02:58PM 34.2331 -79.2006 271° West 333 383 20,000  Level Jacksonville Center
02:59PM 34.2322 -79.3136 270° West 333 383 20,000  Level Jacksonville Center
03:00PM 34.2311 -79.4292 269° West 328 377 20,000  Level Jacksonville Center
03:01PM 34.2322 -79.5394 271° West 326 375 20,000  Level Jacksonville Center
03:02PM 34.2469 -79.6269 282° West 326 375 20,000  Level Jacksonville Center
03:03PM 34.3036 -79.7253 305° West 313 360 20,000  Level Jacksonville Center
03:04PM 34.3706 -79.8211 310° West 313 360 20,000 -300 Level Jacksonville Center
03:05PM 34.4269 -79.9044 309° West 324 373 19,500 -1,200 Descending Jacksonville Center
03:06PM 34.4811 -79.9908 307° West 330 380 17,700 -1,800 Descending Jacksonville Center
03:07PM 34.5375 -80.0822 307° West 330 380 16,000 -1,740 Descending Jacksonville Center
03:08PM 34.5892 -80.1664 307° West 330 380 14,300 -1,680 Descending Jacksonville Center
03:09PM 34.6306 -80.2319 308° West 302 348 13,000 -1,620 Descending Atlanta Center
03:10PM 34.6722 -80.2983 307° West 297 342 11,700 -1,140 Descending Atlanta Center
03:11PM 34.7244 -80.3717 311° West 292 336 11,000 -360 Descending Atlanta Center
03:12PM 34.7461 -80.4644 286° West 293 337 11,000 -600 Level Atlanta Center
03:13PM 34.7489 -80.5603 272° West 287 330 9,800 -1,440 Descending Atlanta Center
03:14PM 34.7519 -80.6714 272° West 281 323 8,000 -900 Descending Atlanta Center
03:15PM 34.7522 -80.7572 270° West 242 278 8,000  Level Atlanta Center
03:16PM 34.7478 -80.8283 266° West 196 226 8,000  Level Atlanta Center
03:17PM 34.7558 -80.8961 278° West 199 229 8,000  Level Atlanta Center
03:18PM 34.8044 -80.9197 338° Northwest 192 221 8,000 -300 Level Atlanta Center
03:19PM 34.8544 -80.9228 357° North 178 205 7,400 -840 Descending Atlanta Center
03:20PM 34.9047 -80.9286 355° North 177 204 6,300 -1,020 Descending Atlanta Center
03:21PM 34.9572 -80.9342 355° North 176 203 5,400 -900 Descending Atlanta Center
03:22PM 35.0092 -80.9347 359° North 176 203 4,400 -1,020 Descending Atlanta Center
03:23PM 35.0617 -80.9431 353° North 180 207 3,300 -960 Descending Atlanta Center
03:24PM 35.1014 -80.9467 356° North 176 203 2,600 -840 Descending Atlanta Center
03:25PM 35.1475 -80.9500 357° North 153 176 1,700 -840 Descending Atlanta Center
03:26PM 35.1850 -80.9511 359° North 125 144 1,000 -720 Descending Atlanta Center